sensor_id;sensor_type;location;lat;lon;timestamp;P1;durP1;ratioP1;P2;durP2;ratioP2
17650;SDS011;26663;59.302;18.082;2023-05-07T00:01:27;3.70;;;2.50;;
17650;SDS011;26663;59.302;18.082;2023-05-07T00:04:32;2.67;;;2.40;;
17650;SDS011;26663;59.302;18.082;2023-05-07T00:07:40;2.50;;;2.30;;
17650;SDS011;26663;59.302;18.082;2023-05-07T00:10:45;2.43;;;2.40;;
17650;SDS011;26663;59.302;18.082;2023-05-07T00:13:52;7.57;;;2.50;;
17650;SDS011;26663;59.302;18.082;2023-05-07T00:16:57;3.27;;;1.83;;
17650;SDS011;26663;59.302;18.082;2023-05-07T00:20:03;2.03;;;1.90;;
17650;SDS011;26663;59.302;18.082;2023-05-07T00:23:09;2.20;;;2.10;;
17650;SDS011;26663;59.302;18.082;2023-05-07T00:26:14;8.53;;;2.37;;
17650;SDS011;26663;59.302;18.082;2023-05-07T00:29:24;3.60;;;2.80;;
17650;SDS011;26663;59.302;18.082;2023-05-07T00:32:29;3.00;;;2.63;;
17650;SDS011;26663;59.302;18.082;2023-05-07T00:35:34;6.00;;;2.70;;
17650;SDS011;26663;59.302;18.082;2023-05-07T00:38:39;6.00;;;2.30;;
17650;SDS011;26663;59.302;18.082;2023-05-07T00:41:44;2.70;;;2.50;;
17650;SDS011;26663;59.302;18.082;2023-05-07T00:44:51;6.87;;;2.57;;
17650;SDS011;26663;59.302;18.082;2023-05-07T00:47:57;5.10;;;2.37;;
17650;SDS011;26663;59.302;18.082;2023-05-07T00:51:03;4.30;;;2.43;;
17650;SDS011;26663;59.302;18.082;2023-05-07T00:54:09;2.47;;;2.33;;
17650;SDS011;26663;59.302;18.082;2023-05-07T00:57:15;2.57;;;2.30;;
17650;SDS011;26663;59.302;18.082;2023-05-07T01:00:22;2.50;;;2.30;;
17650;SDS011;26663;59.302;18.082;2023-05-07T01:03:28;3.53;;;2.47;;
17650;SDS011;26663;59.302;18.082;2023-05-07T01:06:33;2.60;;;2.40;;
17650;SDS011;26663;59.302;18.082;2023-05-07T01:09:39;2.73;;;2.53;;
17650;SDS011;26663;59.302;18.082;2023-05-07T01:12:44;3.80;;;2.20;;
17650;SDS011;26663;59.302;18.082;2023-05-07T01:15:51;3.43;;;2.30;;
17650;SDS011;26663;59.302;18.082;2023-05-07T01:18:57;2.80;;;2.60;;
17650;SDS011;26663;59.302;18.082;2023-05-07T01:22:02;2.70;;;2.50;;
17650;SDS011;26663;59.302;18.082;2023-05-07T01:25:21;5.20;;;2.60;;
17650;SDS011;26663;59.302;18.082;2023-05-07T01:28:29;4.47;;;2.83;;
17650;SDS011;26663;59.302;18.082;2023-05-07T01:31:35;4.33;;;2.50;;
17650;SDS011;26663;59.302;18.082;2023-05-07T01:34:41;2.50;;;2.40;;
17650;SDS011;26663;59.302;18.082;2023-05-07T01:37:47;2.93;;;2.50;;
17650;SDS011;26663;59.302;18.082;2023-05-07T01:40:54;4.13;;;2.57;;
17650;SDS011;26663;59.302;18.082;2023-05-07T01:44:00;4.77;;;2.30;;
17650;SDS011;26663;59.302;18.082;2023-05-07T01:47:07;3.90;;;2.30;;
17650;SDS011;26663;59.302;18.082;2023-05-07T01:50:13;2.80;;;2.60;;
17650;SDS011;26663;59.302;18.082;2023-05-07T01:53:21;2.30;;;2.20;;
17650;SDS011;26663;59.302;18.082;2023-05-07T01:56:27;2.50;;;2.40;;
17650;SDS011;26663;59.302;18.082;2023-05-07T01:59:33;2.20;;;2.00;;
17650;SDS011;26663;59.302;18.082;2023-05-07T02:02:38;6.03;;;2.80;;
17650;SDS011;26663;59.302;18.082;2023-05-07T02:05:52;2.70;;;2.47;;
17650;SDS011;26663;59.302;18.082;2023-05-07T02:09:05;3.67;;;2.67;;
17650;SDS011;26663;59.302;18.082;2023-05-07T02:12:14;2.70;;;2.50;;
17650;SDS011;26663;59.302;18.082;2023-05-07T02:15:19;2.60;;;2.40;;
17650;SDS011;26663;59.302;18.082;2023-05-07T02:18:24;3.13;;;2.40;;
17650;SDS011;26663;59.302;18.082;2023-05-07T02:21:29;3.67;;;2.80;;
17650;SDS011;26663;59.302;18.082;2023-05-07T02:24:35;3.73;;;2.60;;
17650;SDS011;26663;59.302;18.082;2023-05-07T02:27:41;3.43;;;2.30;;
17650;SDS011;26663;59.302;18.082;2023-05-07T02:30:47;2.70;;;2.43;;
17650;SDS011;26663;59.302;18.082;2023-05-07T02:33:54;2.17;;;2.17;;
17650;SDS011;26663;59.302;18.082;2023-05-07T02:36:59;3.20;;;2.97;;
17650;SDS011;26663;59.302;18.082;2023-05-07T02:40:05;4.33;;;2.87;;
17650;SDS011;26663;59.302;18.082;2023-05-07T02:43:12;2.90;;;2.70;;
17650;SDS011;26663;59.302;18.082;2023-05-07T02:46:21;2.80;;;2.70;;
17650;SDS011;26663;59.302;18.082;2023-05-07T02:49:34;5.17;;;2.63;;
17650;SDS011;26663;59.302;18.082;2023-05-07T02:52:40;2.70;;;2.53;;
17650;SDS011;26663;59.302;18.082;2023-05-07T02:55:45;2.60;;;2.40;;
17650;SDS011;26663;59.302;18.082;2023-05-07T02:58:52;6.90;;;2.57;;
17650;SDS011;26663;59.302;18.082;2023-05-07T03:02:00;5.30;;;2.63;;
17650;SDS011;26663;59.302;18.082;2023-05-07T03:05:06;2.90;;;2.80;;
17650;SDS011;26663;59.302;18.082;2023-05-07T03:08:13;4.83;;;2.80;;
17650;SDS011;26663;59.302;18.082;2023-05-07T03:11:18;3.17;;;2.83;;
17650;SDS011;26663;59.302;18.082;2023-05-07T03:14:24;4.50;;;2.77;;
17650;SDS011;26663;59.302;18.082;2023-05-07T03:17:30;5.20;;;2.70;;
17650;SDS011;26663;59.302;18.082;2023-05-07T03:20:35;6.27;;;2.93;;
17650;SDS011;26663;59.302;18.082;2023-05-07T03:23:40;2.73;;;2.53;;
17650;SDS011;26663;59.302;18.082;2023-05-07T03:26:45;2.87;;;2.77;;
17650;SDS011;26663;59.302;18.082;2023-05-07T03:29:52;2.90;;;2.70;;
17650;SDS011;26663;59.302;18.082;2023-05-07T03:32:58;5.50;;;3.00;;
17650;SDS011;26663;59.302;18.082;2023-05-07T03:36:04;2.80;;;2.70;;
17650;SDS011;26663;59.302;18.082;2023-05-07T03:39:09;2.80;;;2.70;;
17650;SDS011;26663;59.302;18.082;2023-05-07T03:42:16;3.20;;;2.77;;
17650;SDS011;26663;59.302;18.082;2023-05-07T03:45:25;2.80;;;2.60;;
17650;SDS011;26663;59.302;18.082;2023-05-07T03:48:41;2.77;;;2.67;;
17650;SDS011;26663;59.302;18.082;2023-05-07T03:51:48;3.17;;;2.97;;
17650;SDS011;26663;59.302;18.082;2023-05-07T03:54:53;2.60;;;2.50;;
17650;SDS011;26663;59.302;18.082;2023-05-07T03:57:59;3.00;;;2.80;;
17650;SDS011;26663;59.302;18.082;2023-05-07T04:01:08;2.90;;;2.73;;
17650;SDS011;26663;59.302;18.082;2023-05-07T04:04:13;2.97;;;2.87;;
17650;SDS011;26663;59.302;18.082;2023-05-07T04:07:19;3.03;;;2.93;;
17650;SDS011;26663;59.302;18.082;2023-05-07T04:10:25;2.87;;;2.70;;
17650;SDS011;26663;59.302;18.082;2023-05-07T04:13:33;2.93;;;2.73;;
17650;SDS011;26663;59.302;18.082;2023-05-07T04:16:42;3.40;;;3.20;;
17650;SDS011;26663;59.302;18.082;2023-05-07T04:19:47;3.00;;;2.77;;
17650;SDS011;26663;59.302;18.082;2023-05-07T04:22:53;2.70;;;2.60;;
17650;SDS011;26663;59.302;18.082;2023-05-07T04:25:59;2.80;;;2.70;;
17650;SDS011;26663;59.302;18.082;2023-05-07T04:29:09;2.87;;;2.67;;
17650;SDS011;26663;59.302;18.082;2023-05-07T04:32:17;3.70;;;2.57;;
17650;SDS011;26663;59.302;18.082;2023-05-07T04:35:23;2.67;;;2.53;;
17650;SDS011;26663;59.302;18.082;2023-05-07T04:38:28;2.37;;;2.30;;
17650;SDS011;26663;59.302;18.082;2023-05-07T04:41:35;2.50;;;2.50;;
17650;SDS011;26663;59.302;18.082;2023-05-07T04:44:43;2.43;;;2.30;;
17650;SDS011;26663;59.302;18.082;2023-05-07T04:47:50;3.10;;;2.67;;
17650;SDS011;26663;59.302;18.082;2023-05-07T04:50:55;3.70;;;2.60;;
17650;SDS011;26663;59.302;18.082;2023-05-07T04:54:00;2.73;;;2.53;;
17650;SDS011;26663;59.302;18.082;2023-05-07T04:57:07;2.50;;;2.50;;
17650;SDS011;26663;59.302;18.082;2023-05-07T05:00:13;2.87;;;2.77;;
17650;SDS011;26663;59.302;18.082;2023-05-07T05:03:22;2.87;;;2.77;;
17650;SDS011;26663;59.302;18.082;2023-05-07T05:06:28;2.80;;;2.70;;
17650;SDS011;26663;59.302;18.082;2023-05-07T05:09:35;2.47;;;2.40;;
17650;SDS011;26663;59.302;18.082;2023-05-07T05:12:41;3.10;;;2.37;;
17650;SDS011;26663;59.302;18.082;2023-05-07T05:15:47;3.20;;;2.50;;
17650;SDS011;26663;59.302;18.082;2023-05-07T05:18:54;2.83;;;2.73;;
17650;SDS011;26663;59.302;18.082;2023-05-07T05:21:59;2.73;;;2.53;;
17650;SDS011;26663;59.302;18.082;2023-05-07T05:25:08;2.60;;;2.40;;
17650;SDS011;26663;59.302;18.082;2023-05-07T05:28:13;2.20;;;2.20;;
17650;SDS011;26663;59.302;18.082;2023-05-07T05:31:19;2.50;;;2.43;;
17650;SDS011;26663;59.302;18.082;2023-05-07T05:34:27;2.10;;;2.10;;
17650;SDS011;26663;59.302;18.082;2023-05-07T05:37:33;2.53;;;2.33;;
17650;SDS011;26663;59.302;18.082;2023-05-07T05:40:41;2.23;;;2.10;;
17650;SDS011;26663;59.302;18.082;2023-05-07T05:43:46;2.70;;;2.37;;
17650;SDS011;26663;59.302;18.082;2023-05-07T05:46:54;2.27;;;2.17;;
17650;SDS011;26663;59.302;18.082;2023-05-07T05:50:02;2.00;;;2.00;;
17650;SDS011;26663;59.302;18.082;2023-05-07T05:53:10;2.30;;;2.00;;
17650;SDS011;26663;59.302;18.082;2023-05-07T05:56:16;3.43;;;1.93;;
17650;SDS011;26663;59.302;18.082;2023-05-07T05:59:21;2.80;;;2.10;;
17650;SDS011;26663;59.302;18.082;2023-05-07T06:02:28;2.27;;;2.07;;
17650;SDS011;26663;59.302;18.082;2023-05-07T06:05:35;1.97;;;1.77;;
17650;SDS011;26663;59.302;18.082;2023-05-07T06:08:40;1.83;;;1.83;;
17650;SDS011;26663;59.302;18.082;2023-05-07T06:11:48;2.23;;;1.87;;
17650;SDS011;26663;59.302;18.082;2023-05-07T06:14:54;2.55;;;1.95;;
17650;SDS011;26663;59.302;18.082;2023-05-07T06:17:59;1.80;;;1.70;;
17650;SDS011;26663;59.302;18.082;2023-05-07T06:21:06;2.08;;;1.98;;
17650;SDS011;26663;59.302;18.082;2023-05-07T06:24:11;2.57;;;1.70;;
17650;SDS011;26663;59.302;18.082;2023-05-07T06:27:16;1.70;;;1.70;;
17650;SDS011;26663;59.302;18.082;2023-05-07T06:30:22;1.58;;;1.45;;
17650;SDS011;26663;59.302;18.082;2023-05-07T06:33:30;3.30;;;1.77;;
17650;SDS011;26663;59.302;18.082;2023-05-07T06:36:39;1.63;;;1.63;;
17650;SDS011;26663;59.302;18.082;2023-05-07T06:39:57;2.10;;;1.80;;
17650;SDS011;26663;59.302;18.082;2023-05-07T06:43:05;2.45;;;1.40;;
17650;SDS011;26663;59.302;18.082;2023-05-07T06:46:30;1.50;;;1.50;;
17650;SDS011;26663;59.302;18.082;2023-05-07T06:49:35;1.80;;;1.70;;
17650;SDS011;26663;59.302;18.082;2023-05-07T06:52:42;1.85;;;1.80;;
17650;SDS011;26663;59.302;18.082;2023-05-07T06:55:50;1.75;;;1.75;;
17650;SDS011;26663;59.302;18.082;2023-05-07T06:58:55;1.77;;;1.77;;
17650;SDS011;26663;59.302;18.082;2023-05-07T07:02:01;1.38;;;1.38;;
17650;SDS011;26663;59.302;18.082;2023-05-07T07:05:08;1.50;;;1.50;;
17650;SDS011;26663;59.302;18.082;2023-05-07T07:08:15;1.58;;;1.48;;
17650;SDS011;26663;59.302;18.082;2023-05-07T07:11:21;2.92;;;1.40;;
17650;SDS011;26663;59.302;18.082;2023-05-07T07:14:26;1.50;;;1.30;;
17650;SDS011;26663;59.302;18.082;2023-05-07T07:17:31;2.17;;;1.50;;
17650;SDS011;26663;59.302;18.082;2023-05-07T07:20:37;3.50;;;2.03;;
17650;SDS011;26663;59.302;18.082;2023-05-07T07:23:45;1.55;;;1.40;;
17650;SDS011;26663;59.302;18.082;2023-05-07T07:26:50;1.48;;;1.40;;
17650;SDS011;26663;59.302;18.082;2023-05-07T07:29:56;2.65;;;1.13;;
17650;SDS011;26663;59.302;18.082;2023-05-07T07:33:05;1.42;;;1.42;;
17650;SDS011;26663;59.302;18.082;2023-05-07T07:36:12;2.17;;;1.40;;
17650;SDS011;26663;59.302;18.082;2023-05-07T07:39:19;1.42;;;1.42;;
17650;SDS011;26663;59.302;18.082;2023-05-07T07:42:27;1.30;;;1.30;;
17650;SDS011;26663;59.302;18.082;2023-05-07T07:45:33;1.40;;;1.40;;
17650;SDS011;26663;59.302;18.082;2023-05-07T07:48:38;1.48;;;1.48;;
17650;SDS011;26663;59.302;18.082;2023-05-07T07:51:44;1.48;;;1.48;;
17650;SDS011;26663;59.302;18.082;2023-05-07T07:54:51;2.65;;;1.33;;
17650;SDS011;26663;59.302;18.082;2023-05-07T07:57:57;1.30;;;1.30;;
17650;SDS011;26663;59.302;18.082;2023-05-07T08:01:02;4.68;;;1.80;;
17650;SDS011;26663;59.302;18.082;2023-05-07T08:04:10;1.50;;;1.50;;
17650;SDS011;26663;59.302;18.082;2023-05-07T08:07:17;1.42;;;1.42;;
17650;SDS011;26663;59.302;18.082;2023-05-07T08:10:27;1.80;;;1.70;;
17650;SDS011;26663;59.302;18.082;2023-05-07T08:13:39;1.75;;;1.65;;
17650;SDS011;26663;59.302;18.082;2023-05-07T08:16:44;2.28;;;1.40;;
17650;SDS011;26663;59.302;18.082;2023-05-07T08:19:50;1.77;;;1.50;;
17650;SDS011;26663;59.302;18.082;2023-05-07T08:22:55;1.63;;;1.52;;
17650;SDS011;26663;59.302;18.082;2023-05-07T08:26:03;1.23;;;1.20;;
17650;SDS011;26663;59.302;18.082;2023-05-07T08:29:09;1.38;;;1.38;;
17650;SDS011;26663;59.302;18.082;2023-05-07T08:32:14;2.05;;;1.58;;
17650;SDS011;26663;59.302;18.082;2023-05-07T08:35:19;4.13;;;1.55;;
17650;SDS011;26663;59.302;18.082;2023-05-07T08:38:24;1.70;;;1.60;;
17650;SDS011;26663;59.302;18.082;2023-05-07T08:41:32;4.40;;;2.30;;
17650;SDS011;26663;59.302;18.082;2023-05-07T08:44:38;1.80;;;1.30;;
17650;SDS011;26663;59.302;18.082;2023-05-07T08:47:44;1.95;;;1.40;;
17650;SDS011;26663;59.302;18.082;2023-05-07T08:50:53;1.40;;;1.40;;
17650;SDS011;26663;59.302;18.082;2023-05-07T08:53:59;1.67;;;1.67;;
17650;SDS011;26663;59.302;18.082;2023-05-07T08:57:09;1.60;;;1.50;;
17650;SDS011;26663;59.302;18.082;2023-05-07T09:00:14;1.80;;;1.70;;
17650;SDS011;26663;59.302;18.082;2023-05-07T09:03:23;1.60;;;1.50;;
17650;SDS011;26663;59.302;18.082;2023-05-07T09:06:31;1.35;;;1.35;;
17650;SDS011;26663;59.302;18.082;2023-05-07T09:09:36;1.88;;;1.75;;
17650;SDS011;26663;59.302;18.082;2023-05-07T09:12:44;1.35;;;1.35;;
17650;SDS011;26663;59.302;18.082;2023-05-07T09:15:52;1.45;;;1.35;;
17650;SDS011;26663;59.302;18.082;2023-05-07T09:18:59;1.45;;;1.27;;
17650;SDS011;26663;59.302;18.082;2023-05-07T09:22:05;1.48;;;1.33;;
17650;SDS011;26663;59.302;18.082;2023-05-07T09:25:29;1.42;;;1.30;;
17650;SDS011;26663;59.302;18.082;2023-05-07T09:28:45;2.38;;;1.50;;
17650;SDS011;26663;59.302;18.082;2023-05-07T09:31:51;1.50;;;1.40;;
17650;SDS011;26663;59.302;18.082;2023-05-07T09:34:56;2.15;;;1.40;;
17650;SDS011;26663;59.302;18.082;2023-05-07T09:38:03;1.80;;;1.60;;
17650;SDS011;26663;59.302;18.082;2023-05-07T09:41:11;1.38;;;1.38;;
17650;SDS011;26663;59.302;18.082;2023-05-07T09:44:26;1.50;;;1.40;;
17650;SDS011;26663;59.302;18.082;2023-05-07T09:47:32;1.85;;;1.75;;
17650;SDS011;26663;59.302;18.082;2023-05-07T09:50:39;4.90;;;1.50;;
17650;SDS011;26663;59.302;18.082;2023-05-07T09:53:49;2.40;;;1.50;;
17650;SDS011;26663;59.302;18.082;2023-05-07T09:56:56;4.68;;;1.55;;
17650;SDS011;26663;59.302;18.082;2023-05-07T10:00:06;1.38;;;1.38;;
17650;SDS011;26663;59.302;18.082;2023-05-07T10:03:22;1.65;;;1.30;;
17650;SDS011;26663;59.302;18.082;2023-05-07T10:06:35;3.60;;;1.45;;
17650;SDS011;26663;59.302;18.082;2023-05-07T10:09:42;1.40;;;1.40;;
17650;SDS011;26663;59.302;18.082;2023-05-07T10:12:59;2.15;;;1.40;;
17650;SDS011;26663;59.302;18.082;2023-05-07T10:16:11;2.35;;;1.60;;
17650;SDS011;26663;59.302;18.082;2023-05-07T10:19:23;1.98;;;1.63;;
17650;SDS011;26663;59.302;18.082;2023-05-07T10:22:30;1.38;;;1.35;;
17650;SDS011;26663;59.302;18.082;2023-05-07T10:25:41;1.60;;;1.60;;
17650;SDS011;26663;59.302;18.082;2023-05-07T10:28:54;1.50;;;1.40;;
17650;SDS011;26663;59.302;18.082;2023-05-07T10:35:47;2.67;;;1.48;;
17650;SDS011;26663;59.302;18.082;2023-05-07T10:38:53;2.25;;;1.30;;
17650;SDS011;26663;59.302;18.082;2023-05-07T10:42:07;2.47;;;1.58;;
17650;SDS011;26663;59.302;18.082;2023-05-07T10:45:14;4.22;;;1.65;;
17650;SDS011;26663;59.302;18.082;2023-05-07T10:48:23;1.67;;;1.58;;
17650;SDS011;26663;59.302;18.082;2023-05-07T10:51:41;1.60;;;1.60;;
17650;SDS011;26663;59.302;18.082;2023-05-07T10:55:19;1.70;;;1.60;;
17650;SDS011;26663;59.302;18.082;2023-05-07T10:58:53;2.10;;;1.42;;
17650;SDS011;26663;59.302;18.082;2023-05-07T11:02:07;1.60;;;1.50;;
17650;SDS011;26663;59.302;18.082;2023-05-07T11:05:22;1.50;;;1.50;;
17650;SDS011;26663;59.302;18.082;2023-05-07T11:08:55;3.60;;;1.63;;
17650;SDS011;26663;59.302;18.082;2023-05-07T11:12:11;4.88;;;1.67;;
17650;SDS011;26663;59.302;18.082;2023-05-07T11:15:36;2.67;;;1.60;;
17650;SDS011;26663;59.302;18.082;2023-05-07T11:18:57;5.00;;;1.40;;
17650;SDS011;26663;59.302;18.082;2023-05-07T11:25:59;2.25;;;1.42;;
17650;SDS011;26663;59.302;18.082;2023-05-07T11:29:08;3.58;;;1.85;;
17650;SDS011;26663;59.302;18.082;2023-05-07T11:32:21;6.35;;;1.83;;
17650;SDS011;26663;59.302;18.082;2023-05-07T11:35:28;1.85;;;1.63;;
17650;SDS011;26663;59.302;18.082;2023-05-07T11:38:37;5.88;;;1.65;;
17650;SDS011;26663;59.302;18.082;2023-05-07T11:41:44;1.83;;;1.73;;
17650;SDS011;26663;59.302;18.082;2023-05-07T11:44:49;3.10;;;1.50;;
17650;SDS011;26663;59.302;18.082;2023-05-07T11:47:54;1.65;;;1.55;;
17650;SDS011;26663;59.302;18.082;2023-05-07T11:51:00;1.80;;;1.80;;
17650;SDS011;26663;59.302;18.082;2023-05-07T11:54:08;1.85;;;1.80;;
17650;SDS011;26663;59.302;18.082;2023-05-07T11:57:15;1.70;;;1.70;;
17650;SDS011;26663;59.302;18.082;2023-05-07T12:00:20;1.95;;;1.73;;
17650;SDS011;26663;59.302;18.082;2023-05-07T12:03:26;1.67;;;1.58;;
17650;SDS011;26663;59.302;18.082;2023-05-07T12:06:37;3.00;;;1.70;;
17650;SDS011;26663;59.302;18.082;2023-05-07T12:09:42;1.50;;;1.50;;
17650;SDS011;26663;59.302;18.082;2023-05-07T12:12:49;1.70;;;1.60;;
17650;SDS011;26663;59.302;18.082;2023-05-07T12:15:55;2.60;;;1.70;;
17650;SDS011;26663;59.302;18.082;2023-05-07T12:19:00;1.55;;;1.55;;
17650;SDS011;26663;59.302;18.082;2023-05-07T12:22:05;2.75;;;1.30;;
17650;SDS011;26663;59.302;18.082;2023-05-07T12:25:12;2.05;;;1.60;;
17650;SDS011;26663;59.302;18.082;2023-05-07T12:28:25;1.75;;;1.65;;
17650;SDS011;26663;59.302;18.082;2023-05-07T12:31:30;1.95;;;1.70;;
17650;SDS011;26663;59.302;18.082;2023-05-07T12:34:35;3.88;;;1.90;;
17650;SDS011;26663;59.302;18.082;2023-05-07T12:37:40;1.55;;;1.50;;
17650;SDS011;26663;59.302;18.082;2023-05-07T12:40:46;3.90;;;1.60;;
17650;SDS011;26663;59.302;18.082;2023-05-07T12:43:57;2.17;;;1.40;;
17650;SDS011;26663;59.302;18.082;2023-05-07T12:47:02;5.35;;;1.65;;
17650;SDS011;26663;59.302;18.082;2023-05-07T12:50:09;7.30;;;1.70;;
17650;SDS011;26663;59.302;18.082;2023-05-07T12:53:14;7.22;;;1.40;;
17650;SDS011;26663;59.302;18.082;2023-05-07T12:56:19;5.57;;;1.92;;
17650;SDS011;26663;59.302;18.082;2023-05-07T12:59:31;2.53;;;1.50;;
17650;SDS011;26663;59.302;18.082;2023-05-07T13:02:37;1.45;;;1.40;;
17650;SDS011;26663;59.302;18.082;2023-05-07T13:05:43;2.67;;;1.60;;
17650;SDS011;26663;59.302;18.082;2023-05-07T13:08:49;3.95;;;1.80;;
17650;SDS011;26663;59.302;18.082;2023-05-07T13:11:54;6.80;;;2.58;;
17650;SDS011;26663;59.302;18.082;2023-05-07T13:15:00;2.60;;;1.30;;
17650;SDS011;26663;59.302;18.082;2023-05-07T13:18:06;29.02;;;2.38;;
17650;SDS011;26663;59.302;18.082;2023-05-07T13:21:21;2.97;;;1.60;;
17650;SDS011;26663;59.302;18.082;2023-05-07T13:24:26;3.63;;;1.33;;
17650;SDS011;26663;59.302;18.082;2023-05-07T13:27:32;2.25;;;1.88;;
17650;SDS011;26663;59.302;18.082;2023-05-07T13:30:40;14.95;;;2.15;;
17650;SDS011;26663;59.302;18.082;2023-05-07T13:33:46;4.40;;;1.58;;
17650;SDS011;26663;59.302;18.082;2023-05-07T13:36:52;5.40;;;1.50;;
17650;SDS011;26663;59.302;18.082;2023-05-07T13:39:57;2.85;;;2.00;;
17650;SDS011;26663;59.302;18.082;2023-05-07T13:43:03;2.08;;;1.90;;
17650;SDS011;26663;59.302;18.082;2023-05-07T13:46:10;2.63;;;2.53;;
17650;SDS011;26663;59.302;18.082;2023-05-07T13:49:16;2.42;;;1.88;;
17650;SDS011;26663;59.302;18.082;2023-05-07T13:52:21;2.63;;;1.60;;
17650;SDS011;26663;59.302;18.082;2023-05-07T13:55:28;3.15;;;1.40;;
17650;SDS011;26663;59.302;18.082;2023-05-07T13:58:33;1.60;;;1.60;;
17650;SDS011;26663;59.302;18.082;2023-05-07T14:01:51;1.52;;;1.40;;
17650;SDS011;26663;59.302;18.082;2023-05-07T14:04:57;1.75;;;1.30;;
17650;SDS011;26663;59.302;18.082;2023-05-07T14:08:03;1.55;;;1.55;;
17650;SDS011;26663;59.302;18.082;2023-05-07T14:11:11;1.58;;;1.48;;
17650;SDS011;26663;59.302;18.082;2023-05-07T14:14:16;1.60;;;1.50;;
17650;SDS011;26663;59.302;18.082;2023-05-07T14:17:23;1.80;;;1.60;;
17650;SDS011;26663;59.302;18.082;2023-05-07T14:20:29;1.52;;;1.42;;
17650;SDS011;26663;59.302;18.082;2023-05-07T14:23:34;4.43;;;1.60;;
17650;SDS011;26663;59.302;18.082;2023-05-07T14:26:40;2.65;;;1.50;;
17650;SDS011;26663;59.302;18.082;2023-05-07T14:29:45;1.67;;;1.67;;
17650;SDS011;26663;59.302;18.082;2023-05-07T14:32:55;1.42;;;1.33;;
17650;SDS011;26663;59.302;18.082;2023-05-07T14:36:00;2.00;;;1.50;;
17650;SDS011;26663;59.302;18.082;2023-05-07T14:39:06;2.30;;;1.65;;
17650;SDS011;26663;59.302;18.082;2023-05-07T14:42:11;2.38;;;1.45;;
17650;SDS011;26663;59.302;18.082;2023-05-07T14:45:16;1.30;;;1.30;;
17650;SDS011;26663;59.302;18.082;2023-05-07T14:48:23;3.17;;;1.70;;
17650;SDS011;26663;59.302;18.082;2023-05-07T14:51:28;4.20;;;1.65;;
17650;SDS011;26663;59.302;18.082;2023-05-07T14:54:33;2.15;;;1.75;;
17650;SDS011;26663;59.302;18.082;2023-05-07T14:57:40;2.22;;;2.10;;
17650;SDS011;26663;59.302;18.082;2023-05-07T15:00:45;3.22;;;1.45;;
17650;SDS011;26663;59.302;18.082;2023-05-07T15:03:52;1.63;;;1.60;;
17650;SDS011;26663;59.302;18.082;2023-05-07T15:06:57;1.80;;;1.38;;
17650;SDS011;26663;59.302;18.082;2023-05-07T15:10:03;1.50;;;1.50;;
17650;SDS011;26663;59.302;18.082;2023-05-07T15:13:10;4.07;;;1.27;;
17650;SDS011;26663;59.302;18.082;2023-05-07T15:16:17;1.45;;;1.45;;
17650;SDS011;26663;59.302;18.082;2023-05-07T15:19:24;2.45;;;1.60;;
17650;SDS011;26663;59.302;18.082;2023-05-07T15:22:31;2.10;;;1.50;;
17650;SDS011;26663;59.302;18.082;2023-05-07T15:25:38;1.20;;;1.20;;
17650;SDS011;26663;59.302;18.082;2023-05-07T15:28:44;2.35;;;1.58;;
17650;SDS011;26663;59.302;18.082;2023-05-07T15:31:49;1.40;;;1.40;;
17650;SDS011;26663;59.302;18.082;2023-05-07T15:34:56;2.25;;;1.33;;
17650;SDS011;26663;59.302;18.082;2023-05-07T15:38:01;1.63;;;1.63;;
17650;SDS011;26663;59.302;18.082;2023-05-07T15:41:09;2.67;;;1.70;;
17650;SDS011;26663;59.302;18.082;2023-05-07T15:44:14;3.35;;;1.55;;
17650;SDS011;26663;59.302;18.082;2023-05-07T15:47:19;1.60;;;1.55;;
17650;SDS011;26663;59.302;18.082;2023-05-07T15:50:26;2.65;;;1.73;;
17650;SDS011;26663;59.302;18.082;2023-05-07T15:53:31;4.25;;;1.85;;
17650;SDS011;26663;59.302;18.082;2023-05-07T15:56:36;1.92;;;1.45;;
17650;SDS011;26663;59.302;18.082;2023-05-07T15:59:41;7.40;;;1.40;;
17650;SDS011;26663;59.302;18.082;2023-05-07T16:02:47;1.75;;;1.75;;
17650;SDS011;26663;59.302;18.082;2023-05-07T16:05:54;1.52;;;1.40;;
17650;SDS011;26663;59.302;18.082;2023-05-07T16:09:02;1.30;;;1.30;;
17650;SDS011;26663;59.302;18.082;2023-05-07T16:12:09;1.40;;;1.40;;
17650;SDS011;26663;59.302;18.082;2023-05-07T16:15:14;4.13;;;1.42;;
17650;SDS011;26663;59.302;18.082;2023-05-07T16:18:19;1.40;;;1.40;;
17650;SDS011;26663;59.302;18.082;2023-05-07T16:21:26;2.45;;;1.50;;
17650;SDS011;26663;59.302;18.082;2023-05-07T16:24:32;1.42;;;1.42;;
17650;SDS011;26663;59.302;18.082;2023-05-07T16:27:40;5.22;;;1.60;;
17650;SDS011;26663;59.302;18.082;2023-05-07T16:30:45;5.75;;;1.90;;
17650;SDS011;26663;59.302;18.082;2023-05-07T16:33:50;1.58;;;1.58;;
17650;SDS011;26663;59.302;18.082;2023-05-07T16:36:57;2.35;;;1.75;;
17650;SDS011;26663;59.302;18.082;2023-05-07T16:40:17;2.45;;;1.88;;
17650;SDS011;26663;59.302;18.082;2023-05-07T16:43:22;4.63;;;1.73;;
17650;SDS011;26663;59.302;18.082;2023-05-07T16:46:28;2.15;;;1.70;;
17650;SDS011;26663;59.302;18.082;2023-05-07T16:49:33;3.05;;;1.65;;
17650;SDS011;26663;59.302;18.082;2023-05-07T16:52:40;1.50;;;1.40;;
17650;SDS011;26663;59.302;18.082;2023-05-07T16:55:45;2.65;;;1.73;;
17650;SDS011;26663;59.302;18.082;2023-05-07T16:58:50;3.28;;;1.77;;
17650;SDS011;26663;59.302;18.082;2023-05-07T17:01:58;1.63;;;1.55;;
17650;SDS011;26663;59.302;18.082;2023-05-07T17:05:03;1.55;;;1.45;;
17650;SDS011;26663;59.302;18.082;2023-05-07T17:08:12;2.15;;;1.60;;
17650;SDS011;26663;59.302;18.082;2023-05-07T17:11:17;1.60;;;1.60;;
17650;SDS011;26663;59.302;18.082;2023-05-07T17:14:23;3.05;;;1.45;;
17650;SDS011;26663;59.302;18.082;2023-05-07T17:17:28;1.63;;;1.52;;
17650;SDS011;26663;59.302;18.082;2023-05-07T17:20:34;1.35;;;1.35;;
17650;SDS011;26663;59.302;18.082;2023-05-07T17:23:42;3.95;;;1.48;;
17650;SDS011;26663;59.302;18.082;2023-05-07T17:26:47;1.70;;;1.60;;
17650;SDS011;26663;59.302;18.082;2023-05-07T17:29:53;1.70;;;1.58;;
17650;SDS011;26663;59.302;18.082;2023-05-07T17:32:58;2.70;;;1.40;;
17650;SDS011;26663;59.302;18.082;2023-05-07T17:36:21;4.00;;;1.85;;
17650;SDS011;26663;59.302;18.082;2023-05-07T17:39:27;4.03;;;1.23;;
17650;SDS011;26663;59.302;18.082;2023-05-07T17:42:33;1.60;;;1.50;;
17650;SDS011;26663;59.302;18.082;2023-05-07T17:45:38;1.85;;;1.42;;
17650;SDS011;26663;59.302;18.082;2023-05-07T17:48:43;1.77;;;1.67;;
17650;SDS011;26663;59.302;18.082;2023-05-07T17:51:49;1.38;;;1.38;;
17650;SDS011;26663;59.302;18.082;2023-05-07T17:54:59;3.88;;;1.75;;
17650;SDS011;26663;59.302;18.082;2023-05-07T17:58:05;2.10;;;1.40;;
17650;SDS011;26663;59.302;18.082;2023-05-07T18:01:11;2.25;;;1.85;;
17650;SDS011;26663;59.302;18.082;2023-05-07T18:04:16;5.05;;;1.80;;
17650;SDS011;26663;59.302;18.082;2023-05-07T18:07:23;5.00;;;1.63;;
17650;SDS011;26663;59.302;18.082;2023-05-07T18:10:30;2.45;;;1.80;;
17650;SDS011;26663;59.302;18.082;2023-05-07T18:13:35;2.85;;;1.42;;
17650;SDS011;26663;59.302;18.082;2023-05-07T18:16:40;2.45;;;1.55;;
17650;SDS011;26663;59.302;18.082;2023-05-07T18:19:45;2.70;;;1.70;;
17650;SDS011;26663;59.302;18.082;2023-05-07T18:22:55;2.78;;;1.70;;
17650;SDS011;26663;59.302;18.082;2023-05-07T18:26:01;2.00;;;1.88;;
17650;SDS011;26663;59.302;18.082;2023-05-07T18:29:09;4.63;;;1.83;;
17650;SDS011;26663;59.302;18.082;2023-05-07T18:32:15;1.73;;;1.48;;
17650;SDS011;26663;59.302;18.082;2023-05-07T18:35:20;5.32;;;1.65;;
17650;SDS011;26663;59.302;18.082;2023-05-07T18:38:25;4.78;;;1.60;;